^^
Datos históricos de la estación: Murcia-Puente Tocinos
Diario Informe para Enero 30, 2019 Unidades:  Ingés    Métrico   Ambas
Diario Semanal Mensual Anual
  Máxima: Mínima: Promedio:
Temperatura: 63.9 °F 51.6 °F 58.6 °F
Punto de rocio: 40.6 °F 31.6 °F 36.7 °F
Humedad: 61% 30% 45%
Velocidad viento: 12.3mph 1.4mph 5.2mph
Racha viento: 26.5mph - -
Viento- - SO
Presión: 29.9 in 29.8 in -
Precipitación: 0 in    
 
 
Tabla de datos para Enero 30, 2019
Hora Temperatura Punto de rocio Presión Viento Velocidad viento Racha viento Humedad Intensidad lluvia(por hora) Nubes
00:04 58.5 °F 39.4 °F 29.8 in ESE 2.9 mph 5 mph 49% 0 in
00:09 58.3 °F 39.2 °F 29.8 in NO 2.6 mph 5.8 mph 49% 0 in
00:14 58.5 °F 39.4 °F 29.8 in SSO 2.4 mph 9.7 mph 49.3% 0 in
00:19 58.6 °F 39.6 °F 29.8 in SSE 3.1 mph 10 mph 49% 0 in
00:24 58.8 °F 39.7 °F 29.8 in SE 3.6 mph 6.9 mph 49% 0 in
00:29 58.8 °F 39.7 °F 29.8 in SSO 3.3 mph 12.7 mph 49% 0 in
00:34 59.2 °F 40.1 °F 29.8 in OSO 3.1 mph 13 mph 49% 0 in
00:39 59.5 °F 40.3 °F 29.8 in Oeste 5 mph 13 mph 48.8% 0 in
00:44 60.1 °F 40.1 °F 29.8 in SSE 6.2 mph 13 mph 47.5% 0 in
00:49 59.7 °F 39.9 °F 29.8 in SE 5.7 mph 13 mph 47.9% 0 in
00:54 59.5 °F 39.7 °F 29.8 in Sur 5.4 mph 9 mph 48% 0 in
00:59 59.4 °F 39.7 °F 29.8 in SSO 4.3 mph 8.1 mph 48.2% 0 in
01:04 59.2 °F 39.9 °F 29.8 in SO 3.6 mph 8 mph 49% 0 in
01:09 59.4 °F 40.1 °F 29.8 in SSO 3.9 mph 7 mph 49% 0 in
01:14 59.2 °F 39.9 °F 29.8 in Sur 4 mph 7 mph 49% 0 in
01:19 59.2 °F 39.9 °F 29.8 in SSO 3.8 mph 7 mph 49% 0 in
01:24 59.2 °F 39.9 °F 29.8 in SSO 3.6 mph 7.4 mph 49% 0 in
01:29 59.4 °F 40.1 °F 29.8 in SSO 3.6 mph 9.7 mph 49% 0 in
01:34 59.4 °F 40.3 °F 29.8 in SSO 3.6 mph 10.7 mph 49% 0 in
01:39 59.7 °F 40.3 °F 29.8 in SSO 4.7 mph 11 mph 48.5% 0 in
01:44 59.7 °F 40.5 °F 29.8 in SSO 5.4 mph 12.7 mph 48.9% 0 in
01:49 59.7 °F 40.5 °F 29.8 in SSO 6.3 mph 14 mph 48.8% 0 in
01:54 60.3 °F 40.5 °F 29.8 in SSO 6.9 mph 25.3 mph 48% 0 in
01:59 60.8 °F 40.5 °F 29.8 in SSO 9.8 mph 25 mph 47.1% 0 in
02:04 61.2 °F 40.3 °F 29.8 in SSO 11.4 mph 25 mph 46.2% 0 in
02:09 61.2 °F 40.3 °F 29.8 in SO 11.9 mph 24 mph 46% 0 in
02:14 61.2 °F 40.3 °F 29.8 in SO 12.3 mph 26.5 mph 46% 0 in
02:19 61.3 °F 40.5 °F 29.8 in OSO 12.3 mph 26 mph 46.2% 0 in
02:24 61.3 °F 40.5 °F 29.8 in Oeste 12.3 mph 20.7 mph 46.1% 0 in
02:29 61.2 °F 40.6 °F 29.8 in Oeste 12.3 mph 21 mph 46.8% 0 in
02:34 61 °F 40.6 °F 29.8 in Oeste 12.3 mph 19 mph 47% 0 in
02:39 60.6 °F 40.6 °F 29.8 in Oeste 10.9 mph 18.5 mph 47.5% 0 in
02:44 60.4 °F 40.6 °F 29.8 in OSO 10 mph 19 mph 48% 0 in
02:49 60.3 °F 40.5 °F 29.8 in OSO 9.1 mph 16 mph 48% 0 in
02:54 59.9 °F 40.6 °F 29.8 in Oeste 8.5 mph 13.8 mph 48.8% 0 in
02:59 59.7 °F 40.1 °F 29.8 in Oeste 7.1 mph 14 mph 48.1% 0 in
03:04 59.7 °F 40.1 °F 29.8 in OSO 6.2 mph 13.8 mph 48% 0 in
03:09 59.9 °F 39.9 °F 29.8 in OSO 6.3 mph 14 mph 47.8% 0 in
03:14 59.7 °F 40.1 °F 29.8 in OSO 6.4 mph 10 mph 48% 0 in
03:19 59.7 °F 40.1 °F 29.8 in SSO 5.4 mph 8.5 mph 48.1% 0 in
03:24 59.2 °F 40.1 °F 29.8 in SE 4.7 mph 10.2 mph 49.1% 0 in
03:29 58.3 °F 40.1 °F 29.8 in SSE 4 mph 10.4 mph 50.6% 0 in
03:34 57.2 °F 39.9 °F 29.8 in SSE 3.6 mph 7 mph 52.4% 0 in
03:39 56.7 °F 39.9 °F 29.8 in SSE 4.2 mph 8.1 mph 53.5% 0 in
03:44 56.1 °F 39.7 °F 29.8 in SSE 4.7 mph 8 mph 54% 0 in
03:49 56.1 °F 39.7 °F 29.8 in SSE 3.8 mph 5.8 mph 54% 0 in
03:54 56.1 °F 39.9 °F 29.8 in SSE 3.1 mph 6 mph 54.4% 0 in
03:59 55.9 °F 40.1 °F 29.8 in SE 3.1 mph 5.9 mph 55% 0 in
04:04 55.8 °F 39.9 °F 29.8 in SE 3.1 mph 6.9 mph 55% 0 in
04:09 55.8 °F 39.7 °F 29.8 in SE 3 mph 7 mph 55% 0 in
04:14 55.8 °F 39.6 °F 29.8 in Sur 2.9 mph 6.9 mph 54.4% 0 in
04:19 55.9 °F 39.6 °F 29.8 in Sur 2.9 mph 7 mph 54% 0 in
04:24 56.1 °F 39.6 °F 29.8 in SSO 2.9 mph 6.9 mph 53.7% 0 in
04:29 56.7 °F 39.2 °F 29.8 in Oeste 3.5 mph 15.9 mph 52.1% 0 in
04:34 57.7 °F 38.8 °F 29.8 in Oeste 4 mph 16.1 mph 49.4% 0 in
04:39 58.6 °F 38.7 °F 29.8 in Oeste 6.7 mph 16.1 mph 47.5% 0 in
04:44 59 °F 38.8 °F 29.8 in Oeste 8.7 mph 16 mph 46.9% 0 in
04:49 59.2 °F 38.5 °F 29.8 in Oeste 8.4 mph 15 mph 46% 0 in
04:54 59.2 °F 38.3 °F 29.8 in Oeste 8.1 mph 14 mph 46% 0 in
04:59 58.8 °F 38.3 °F 29.8 in Oeste 7.6 mph 13 mph 46.5% 0 in
05:04 58.6 °F 38.5 °F 29.8 in Oeste 7.4 mph 11.8 mph 47% 0 in
05:09 58.6 °F 38.3 °F 29.8 in Oeste 6.5 mph 15 mph 46.6% 0 in
05:14 58.8 °F 38.1 °F 29.8 in ONO 5.9 mph 15 mph 46% 0 in
05:19 58.8 °F 38.1 °F 29.8 in ONO 6.5 mph 16.1 mph 46% 0 in
05:24 59 °F 38.3 °F 29.8 in ONO 6.9 mph 20.7 mph 46% 0 in
05:29 59.2 °F 38.3 °F 29.8 in Oeste 8.6 mph 21 mph 46% 0 in
05:34 58.8 °F 38.1 °F 29.8 in OSO 10 mph 17 mph 46% 0 in
05:39 58.6 °F 38.1 °F 29.8 in Sur 7.2 mph 10 mph 46.2% 0 in
05:44 57.9 °F 38.3 °F 29.8 in SSE 5.2 mph 10.4 mph 47.7% 0 in
05:49 56.7 °F 38.3 °F 29.8 in SSE 4.7 mph 10 mph 50% 0 in
05:54 55.8 °F 38.3 °F 29.8 in SSE 4.3 mph 8.1 mph 51.7% 0 in
05:59 55.2 °F 38.3 °F 29.8 in SSE 4.3 mph 8.1 mph 52.6% 0 in
06:04 55 °F 38.1 °F 29.8 in SSE 4.3 mph 10.7 mph 53% 0 in
06:09 55 °F 38.1 °F 29.8 in Sur 4.9 mph 12.7 mph 53% 0 in
06:14 55 °F 38.1 °F 29.8 in Sur 5.4 mph 13 mph 53% 0 in
06:19 55 °F 38.1 °F 29.8 in SSE 6 mph 12 mph 53% 0 in
06:24 55 °F 38.1 °F 29.8 in Sur 6.4 mph 9 mph 53% 0 in
06:29 55 °F 38.1 °F 29.8 in Sur 5.7 mph 8 mph 53% 0 in
06:34 55 °F 38.1 °F 29.8 in SSO 5.2 mph 7 mph 53% 0 in
06:39 55 °F 38.1 °F 29.8 in SSO 4.5 mph 5.9 mph 53% 0 in
06:44 55 °F 38.1 °F 29.8 in SO 4 mph 6 mph 53% 0 in
06:49 54.9 °F 37.9 °F 29.8 in SO 4 mph 6 mph 53% 0 in
06:54 55 °F 38.1 °F 29.8 in SSO 4 mph 6 mph 53% 0 in
06:59 55 °F 38.1 °F 29.8 in Sur 3.8 mph 6 mph 53% 0 in
07:04 54.9 °F 38.1 °F 29.8 in SSE 3.6 mph 7.4 mph 53.4% 0 in
07:09 54.3 °F 38.1 °F 29.8 in SSE 3.9 mph 7 mph 54.2% 0 in
07:14 53.8 °F 38.1 °F 29.8 in SE 4 mph 8.1 mph 55.3% 0 in
07:19 53.1 °F 37.9 °F 29.8 in SSE 4.7 mph 8.5 mph 56.3% 0 in
07:24 52.7 °F 37.9 °F 29.8 in Sur 5.2 mph 9 mph 57% 0 in
07:29 52.7 °F 37.9 °F 29.8 in Sur 5.6 mph 9 mph 57% 0 in
07:34 52.9 °F 38.1 °F 29.8 in Sur 5.9 mph 9 mph 57% 0 in
07:39 52.9 °F 38.1 °F 29.8 in SSE 4.8 mph 7 mph 57% 0 in
07:44 53.1 °F 38.1 °F 29.8 in Sur 4 mph 7 mph 56.8% 0 in
07:49 53.2 °F 37.9 °F 29.8 in Sur 3.8 mph 6 mph 56% 0 in
07:54 53.2 °F 37.9 °F 29.8 in Sur 3.6 mph 6.2 mph 56% 0 in
07:59 53.4 °F 37.9 °F 29.8 in Sur 3.3 mph 6 mph 55.4% 0 in
08:04 53.8 °F 37.9 °F 29.8 in Sur 3.1 mph 5 mph 55% 0 in
08:09 53.8 °F 37.9 °F 29.8 in SSO 3.1 mph 5.2 mph 55% 0 in
08:14 54 °F 38.1 °F 29.8 in SO 3.1 mph 5.8 mph 55% 0 in
08:19 54 °F 38.1 °F 29.8 in SO 3.4 mph 6 mph 55% 0 in
08:24 54 °F 38.1 °F 29.8 in SO 3.6 mph 6.9 mph 55% 0 in
08:29 54 °F 38.1 °F 29.8 in OSO 3.6 mph 7 mph 55% 0 in
08:34 54 °F 38.1 °F 29.8 in OSO 3.6 mph 7 mph 55% 0 in
08:39 53.8 °F 38.1 °F 29.8 in OSO 3.3 mph 5.8 mph 55.5% 0 in
08:44 53.4 °F 38.1 °F 29.8 in Oeste 3.1 mph 6 mph 56% 0 in
08:49 53.4 °F 38.5 °F 29.8 in Oeste 2.7 mph 5.8 mph 56.7% 0 in
08:54 53.2 °F 38.5 °F 29.8 in OSO 2.4 mph 6 mph 57% 0 in
08:59 53.2 °F 38.5 °F 29.8 in SO 3.2 mph 6 mph 57% 0 in
09:04 53.6 °F 38.3 °F 29.9 in SO 3.6 mph 5.2 mph 56.1% 0 in
09:09 53.8 °F 38.7 °F 29.9 in OSO 3.3 mph 5.2 mph 56.4% 0 in
09:14 53.4 °F 38.8 °F 29.9 in SSE 3.1 mph 8.1 mph 57.4% 0 in
09:19 52.7 °F 38.8 °F 29.9 in SSE 3.6 mph 8 mph 59% 0 in
09:24 52.2 °F 38.7 °F 29.9 in Sur 4 mph 8.5 mph 60.3% 0 in
09:29 51.8 °F 38.7 °F 29.9 in Sur 4.7 mph 9 mph 61% 0 in
09:34 51.6 °F 38.7 °F 29.9 in Sur 5.2 mph 7.4 mph 61% 0 in
09:39 51.6 °F 38.7 °F 29.9 in Sur 4.9 mph 9.2 mph 61% 0 in
09:44 51.8 °F 38.5 °F 29.9 in SSO 4.7 mph 9 mph 60.3% 0 in
09:49 52.2 °F 38.7 °F 29.9 in SSO 5 mph 8 mph 60% 0 in
09:54 52.2 °F 38.8 °F 29.9 in SO 5.2 mph 7 mph 60% 0 in
09:59 52.3 °F 38.8 °F 29.9 in OSO 3.9 mph 7 mph 60% 0 in
10:04 52.5 °F 39 °F 29.9 in OSO 3.1 mph 6 mph 60% 0 in
10:09 52.9 °F 38.8 °F 29.9 in OSO 3.4 mph 6 mph 58.8% 0 in
10:14 53.2 °F 38.8 °F 29.9 in OSO 3.6 mph 6 mph 58% 0 in
10:19 53.8 °F 39.2 °F 29.9 in SO 3.9 mph 6.4 mph 57.5% 0 in
10:24 54.7 °F 38.8 °F 29.9 in SSO 4 mph 7.4 mph 55.4% 0 in
10:29 55.6 °F 38.8 °F 29.9 in SSO 4.2 mph 7 mph 53.4% 0 in
10:34 56.1 °F 38.8 °F 29.9 in SO 4.3 mph 7 mph 52.1% 0 in
10:39 56.7 °F 39 °F 29.9 in SO 4.3 mph 7 mph 51.7% 0 in
10:44 57.2 °F 39.2 °F 29.9 in SO 4.3 mph 6.9 mph 51% 0 in
10:49 57.6 °F 39.2 °F 29.9 in SSO 3.9 mph 7 mph 50.3% 0 in
10:54 57.9 °F 39.2 °F 29.9 in SO 3.6 mph 8.7 mph 49.5% 0 in
10:59 57.9 °F 39 °F 29.9 in SO 4.6 mph 9.2 mph 49.2% 0 in
11:04 57.9 °F 39.2 °F 29.9 in SO 5.2 mph 9.2 mph 49.6% 0 in
11:09 58.3 °F 39.6 °F 29.9 in SSO 4.9 mph 9 mph 49.7% 0 in
11:14 58.6 °F 39.6 °F 29.9 in Oeste 4.7 mph 8 mph 49.1% 0 in
11:19 59 °F 39.6 °F 29.9 in ONO 3.4 mph 9.2 mph 48.4% 0 in
11:24 59.4 °F 39.2 °F 29.9 in ONO 2.4 mph 10.4 mph 47% 0 in
11:29 59.7 °F 38.8 °F 29.9 in ONO 4.2 mph 12.5 mph 45.8% 0 in
11:34 59.9 °F 38.5 °F 29.9 in ONO 5.4 mph 13 mph 44.8% 0 in
11:39 60.1 °F 38.1 °F 29.9 in ONO 6.6 mph 13 mph 44% 0 in
11:44 60.3 °F 37.8 °F 29.9 in ONO 7.6 mph 15 mph 43.2% 0 in
11:49 60.4 °F 37.8 °F 29.9 in NO 7.6 mph 15 mph 42.9% 0 in
11:54 61 °F 37.6 °F 29.9 in NO 7.6 mph 16.3 mph 42% 0 in
11:59 61.2 °F 37.8 °F 29.9 in NO 7.9 mph 16.1 mph 42% 0 in
12:04 61.2 °F 37.8 °F 29.9 in ONO 8.1 mph 16.1 mph 41.8% 0 in
12:09 61.2 °F 37.2 °F 29.9 in ONO 8.1 mph 16 mph 40.8% 0 in
12:14 61.2 °F 37.2 °F 29.9 in ONO 8.1 mph 15 mph 41% 0 in
12:19 61.3 °F 37.4 °F 29.9 in NO 7.8 mph 13 mph 41% 0 in
12:24 61.5 °F 37.6 °F 29.9 in ONO 7.6 mph 15.6 mph 41% 0 in
12:29 61.5 °F 37.2 °F 29.9 in NO 7.5 mph 16.1 mph 40.3% 0 in
12:34 61.5 °F 37 °F 29.9 in ONO 7.4 mph 14 mph 40% 0 in
12:39 61.3 °F 36.9 °F 29.9 in Oeste 7.8 mph 14 mph 40% 0 in
12:44 61.5 °F 37 °F 29.9 in Oeste 8.1 mph 14 mph 40% 0 in
12:49 61.3 °F 36.7 °F 29.9 in ONO 7.7 mph 14 mph 39.6% 0 in
12:54 61.3 °F 36.9 °F 29.9 in ONO 7.4 mph 14 mph 40% 0 in
12:59 61.5 °F 36.9 °F 29.9 in ONO 7.4 mph 11 mph 39.8% 0 in
13:04 61.9 °F 36.7 °F 29.9 in Oeste 7.4 mph 11 mph 39.2% 0 in
13:09 61.9 °F 36.5 °F 29.9 in Oeste 6.3 mph 10 mph 39% 0 in
13:14 61.7 °F 36.5 °F 29.9 in OSO 5.4 mph 9.7 mph 39% 0 in
13:19 61.7 °F 36.3 °F 29.9 in SO 5.3 mph 10 mph 38.7% 0 in
13:24 61.5 °F 36.3 °F 29.9 in SO 5.2 mph 11.4 mph 39% 0 in
13:29 61.5 °F 35.8 °F 29.9 in SO 5.3 mph 12 mph 38% 0 in
13:34 61.7 °F 36 °F 29.9 in SO 5.4 mph 12 mph 38.3% 0 in
13:39 61.9 °F 36 °F 29.9 in Oeste 5.4 mph 11.4 mph 38% 0 in
13:44 61.9 °F 36 °F 29.9 in Oeste 5.4 mph 12.7 mph 38% 0 in
13:49 61.9 °F 36 °F 29.9 in OSO 6.3 mph 13 mph 38% 0 in
13:54 62.1 °F 36.5 °F 29.8 in SSO 6.9 mph 12 mph 38.4% 0 in
13:59 62.2 °F 36.3 °F 29.8 in SSO 6.3 mph 10.7 mph 38% 0 in
14:04 62.2 °F 36.3 °F 29.8 in Sur 5.9 mph 11 mph 38% 0 in
14:09 62.1 °F 36.1 °F 29.8 in Sur 6.5 mph 10 mph 38% 0 in
14:14 62.2 °F 36.3 °F 29.8 in SSO 6.9 mph 10 mph 38.1% 0 in
14:19 62.4 °F 36.1 °F 29.8 in SSO 6.1 mph 10 mph 37.6% 0 in
14:24 62.4 °F 36.5 °F 29.8 in SSO 5.4 mph 9.7 mph 38% 0 in
14:29 62.6 °F 36.5 °F 29.8 in Sur 5.4 mph 10 mph 37.8% 0 in
14:34 63 °F 36.5 °F 29.8 in Sur 5.4 mph 11.5 mph 37.5% 0 in
14:39 62.8 °F 36.1 °F 29.8 in SSE 6 mph 12 mph 37% 0 in
14:44 62.8 °F 35.8 °F 29.8 in SSE 6.4 mph 12 mph 36.4% 0 in
14:49 63.1 °F 36 °F 29.8 in Sur 5.5 mph 8 mph 36.5% 0 in
14:54 63.3 °F 35.6 °F 29.8 in Oeste 4.7 mph 11.5 mph 35.6% 0 in
14:59 63.1 °F 35.2 °F 29.8 in ONO 4.7 mph 12 mph 35.3% 0 in
15:04 63 °F 33.4 °F 29.8 in ONO 4.7 mph 15 mph 33% 0 in
15:09 63.1 °F 32.4 °F 29.8 in Oeste 5.7 mph 15 mph 31.4% 0 in
15:14 63.5 °F 32.2 °F 29.8 in ONO 6.4 mph 13 mph 30.7% 0 in
15:19 63.5 °F 31.8 °F 29.8 in NO 6.4 mph 13 mph 30.5% 0 in
15:24 63.7 °F 32 °F 29.8 in ONO 6.4 mph 16.3 mph 30.4% 0 in
15:29 63.7 °F 32 °F 29.8 in ONO 7.1 mph 16 mph 30.3% 0 in
15:34 63.7 °F 31.6 °F 29.8 in Oeste 7.6 mph 14 mph 30% 0 in
15:39 63.7 °F 32.2 °F 29.8 in ONO 7.2 mph 14 mph 30.6% 0 in
15:44 63.5 °F 32.2 °F 29.8 in ONO 6.9 mph 14 mph 30.9% 0 in
15:49 63.7 °F 32.4 °F 29.8 in ONO 6.5 mph 12.3 mph 31% 0 in
15:54 63.7 °F 32.5 °F 29.8 in ONO 6.2 mph 13.8 mph 31% 0 in
15:59 63.9 °F 32.5 °F 29.8 in ONO 6.3 mph 14 mph 31% 0 in
16:04 63.9 °F 32.5 °F 29.8 in ONO 6.4 mph 11.5 mph 31% 0 in
16:09 63.9 °F 32.5 °F 29.8 in Oeste 6.4 mph 12 mph 31% 0 in
16:14 63.7 °F 32.5 °F 29.8 in ONO 6.4 mph 12.7 mph 31.1% 0 in
16:19 63.7 °F 32.5 °F 29.8 in ONO 6.7 mph 17.5 mph 31% 0 in
16:24 63.5 °F 32.5 °F 29.8 in ONO 6.9 mph 17 mph 31.2% 0 in
16:29 63.3 °F 32.7 °F 29.8 in ONO 7.2 mph 12 mph 31.7% 0 in
16:34 63.3 °F 32.9 °F 29.8 in NO 7.4 mph 12.5 mph 32% 0 in
16:39 63.1 °F 32.9 °F 29.8 in ONO 6.7 mph 13 mph 32% 0 in
16:44 63.1 °F 32.7 °F 29.8 in ONO 6.2 mph 13 mph 32% 0 in
16:49 63 °F 33.3 °F 29.8 in ONO 6.6 mph 12.7 mph 32.8% 0 in
16:54 63 °F 33.3 °F 29.8 in ONO 6.9 mph 13 mph 32.9% 0 in
16:59 63 °F 33.1 °F 29.8 in ONO 6.3 mph 11.8 mph 32.7% 0 in
17:04 62.8 °F 33.3 °F 29.8 in ONO 5.9 mph 12 mph 33% 0 in
17:09 62.6 °F 33.1 °F 29.8 in ONO 5.9 mph 12 mph 33% 0 in
17:14 62.4 °F 32.9 °F 29.8 in ONO 5.9 mph 12 mph 33% 0 in
17:19 62.2 °F 32.9 °F 29.8 in ONO 6.5 mph 12.7 mph 33% 0 in
17:24 62.2 °F 32.7 °F 29.8 in NO 6.9 mph 13 mph 33% 0 in
17:29 62.2 °F 33.1 °F 29.8 in ONO 6.6 mph 11.5 mph 33.3% 0 in
17:34 62.1 °F 33.3 °F 29.8 in ONO 6.4 mph 12 mph 33.8% 0 in
17:39 62.1 °F 33.3 °F 29.8 in ONO 7.1 mph 12.7 mph 34% 0 in
17:44 61.9 °F 33.1 °F 29.8 in NO 7.6 mph 13 mph 34% 0 in
17:49 61.5 °F 33.4 °F 29.8 in ONO 7 mph 11.8 mph 34.6% 0 in
17:54 61.3 °F 33.4 °F 29.8 in ONO 6.4 mph 12 mph 35% 0 in
17:59 61.2 °F 33.3 °F 29.8 in ONO 7 mph 12 mph 35% 0 in
18:04 61.2 °F 33.3 °F 29.8 in ONO 7.4 mph 11 mph 35% 0 in
18:09 61 °F 33.3 °F 29.8 in ONO 6.5 mph 9.2 mph 35.2% 0 in
18:14 60.6 °F 33.6 °F 29.8 in ONO 5.9 mph 11.4 mph 36% 0 in
18:19 60.4 °F 33.4 °F 29.8 in ONO 6.1 mph 12 mph 36% 0 in
18:24 60.4 °F 33.3 °F 29.8 in ONO 6.2 mph 10 mph 36% 0 in
18:29 60.4 °F 33.3 °F 29.8 in ONO 5.1 mph 8 mph 36% 0 in
18:34 60.3 °F 33.3 °F 29.8 in ONO 4.3 mph 5.9 mph 36% 0 in
18:39 60.3 °F 33.4 °F 29.8 in ONO 3.6 mph 6.9 mph 36.6% 0 in
18:44 60.1 °F 33.6 °F 29.8 in ONO 3.1 mph 7 mph 37% 0 in
18:49 59.7 °F 33.4 °F 29.8 in ONO 3.8 mph 11.4 mph 37% 0 in
18:54 59.5 °F 33.3 °F 29.8 in ONO 4.3 mph 12 mph 37% 0 in
18:59 59.5 °F 33.3 °F 29.8 in ONO 5.6 mph 13.8 mph 37% 0 in
19:04 59.5 °F 33.1 °F 29.8 in ONO 6.4 mph 14 mph 37% 0 in
19:09 59.5 °F 33.1 °F 29.8 in ONO 7.1 mph 14 mph 37% 0 in
19:14 59.4 °F 33.1 °F 29.8 in ONO 7.6 mph 14 mph 37% 0 in
19:19 59.4 °F 33.1 °F 29.8 in ONO 7.6 mph 13 mph 37% 0 in
19:24 59.2 °F 32.9 °F 29.8 in ONO 7.6 mph 11.5 mph 37% 0 in
19:29 59.2 °F 32.9 °F 29.8 in ONO 6.8 mph 12 mph 37% 0 in
19:34 59 °F 33.3 °F 29.8 in ONO 6.2 mph 8.1 mph 37.7% 0 in
19:39 59 °F 33.3 °F 29.8 in Oeste 5 mph 8 mph 38% 0 in
19:44 58.8 °F 33.3 °F 29.8 in SO 4 mph 7 mph 38% 0 in
19:49 58.6 °F 33.1 °F 29.8 in SO 3.8 mph 6.2 mph 38% 0 in
19:54 58.6 °F 33.6 °F 29.8 in SSO 3.6 mph 6.2 mph 38.9% 0 in
19:59 58.6 °F 33.6 °F 29.8 in SO 3.6 mph 6.2 mph 39% 0 in
20:04 58.5 °F 33.6 °F 29.8 in OSO 3.6 mph 6 mph 39% 0 in
20:09 58.5 °F 33.4 °F 29.8 in SO 3.9 mph 6.4 mph 39.1% 0 in
20:14 58.3 °F 33.4 °F 29.8 in SO 4 mph 7 mph 39.1% 0 in
20:19 58.3 °F 33.4 °F 29.8 in SSO 4 mph 7 mph 39% 0 in
20:24 58.5 °F 33.6 °F 29.8 in Sur 4 mph 7.4 mph 39% 0 in
20:29 58.5 °F 33.8 °F 29.8 in Sur 4.4 mph 10.4 mph 39.6% 0 in
20:34 57.9 °F 33.8 °F 29.8 in Sur 4.7 mph 10 mph 40% 0 in
20:39 57.7 °F 33.6 °F 29.8 in SSO 5.4 mph 9 mph 40% 0 in
20:44 57.7 °F 33.6 °F 29.8 in OSO 5.9 mph 8 mph 40.1% 0 in
20:49 57.7 °F 33.6 °F 29.8 in OSO 4.3 mph 6 mph 40% 0 in
20:54 57.7 °F 33.6 °F 29.8 in OSO 3.1 mph 5 mph 40% 0 in
20:59 57.7 °F 33.6 °F 29.8 in Oeste 3 mph 5 mph 40% 0 in
21:04 57.7 °F 33.6 °F 29.8 in Oeste 2.9 mph 5.2 mph 40% 0 in
21:09 57.7 °F 33.6 °F 29.8 in OSO 3 mph 5.8 mph 40% 0 in
21:14 57.7 °F 33.6 °F 29.8 in OSO 3.1 mph 6 mph 40% 0 in
21:19 57.9 °F 33.6 °F 29.8 in OSO 3.6 mph 6 mph 39.8% 0 in
21:24 57.9 °F 33.6 °F 29.8 in OSO 4 mph 6 mph 40% 0 in
21:29 57.9 °F 33.6 °F 29.8 in Oeste 3.4 mph 5 mph 40% 0 in
21:34 57.7 °F 33.6 °F 29.8 in Oeste 2.9 mph 5.8 mph 40% 0 in
21:39 57.7 °F 33.6 °F 29.8 in Oeste 3 mph 6 mph 40% 0 in
21:44 57.7 °F 33.6 °F 29.8 in Oeste 3.1 mph 5 mph 40% 0 in
21:49 57.6 °F 33.4 °F 29.8 in Oeste 2.5 mph 5 mph 40% 0 in
21:54 57.6 °F 33.4 °F 29.8 in OSO 2 mph 5.8 mph 40% 0 in
21:59 57.6 °F 33.4 °F 29.8 in OSO 2.5 mph 6 mph 40% 0 in
22:04 57.6 °F 33.4 °F 29.8 in OSO 2.9 mph 6.2 mph 40% 0 in
22:09 57.6 °F 33.6 °F 29.8 in SO 2.9 mph 6 mph 40.3% 0 in
22:14 57.6 °F 34 °F 29.8 in SSO 2.9 mph 6.2 mph 41.1% 0 in
22:19 57.4 °F 34 °F 29.8 in Sur 3 mph 6 mph 41% 0 in
22:24 57.4 °F 34 °F 29.8 in SSE 3.1 mph 6 mph 41% 0 in
22:29 57.2 °F 33.8 °F 29.8 in SSE 2.5 mph 4.7 mph 41% 0 in
22:34 57.2 °F 33.8 °F 29.8 in SSO 2 mph 5.9 mph 41% 0 in
22:39 57.4 °F 33.8 °F 29.8 in SO 2.9 mph 6 mph 41% 0 in
22:44 57.2 °F 33.8 °F 29.8 in SSO 3.6 mph 7.4 mph 41% 0 in
22:49 57.2 °F 33.6 °F 29.8 in Sur 4.2 mph 9.2 mph 41% 0 in
22:54 57 °F 33.4 °F 29.8 in SSO 4.7 mph 9 mph 41% 0 in
22:59 57 °F 34 °F 29.8 in SSO 4.3 mph 6 mph 41.7% 0 in
23:04 57 °F 34.2 °F 29.8 in SSO 4 mph 5.2 mph 42% 0 in
23:09 57 °F 34.2 °F 29.8 in SSO 3.5 mph 5.2 mph 42% 0 in
23:14 57 °F 34.2 °F 29.8 in OSO 3.1 mph 5.9 mph 42% 0 in
23:19 57 °F 34.2 °F 29.8 in OSO 3 mph 6 mph 42% 0 in
23:24 57 °F 34.2 °F 29.8 in SO 2.9 mph 5.2 mph 42.3% 0 in
23:29 56.7 °F 34.7 °F 29.8 in ESE 2.4 mph 5 mph 43.6% 0 in
23:34 56.3 °F 34.7 °F 29.8 in ESE 2 mph 5 mph 44.1% 0 in
23:39 56.1 °F 34.9 °F 29.8 in ESE 1.7 mph 2.9 mph 44.6% 0 in
23:44 56.1 °F 35.1 °F 29.8 in ESE 1.4 mph 3.6 mph 45% 0 in
23:49 55.9 °F 35.2 °F 29.8 in NNO 1.7 mph 4.6 mph 45.7% 0 in
23:54 55.8 °F 35.4 °F 29.8 in NO 2 mph 5 mph 46% 0 in
23:59 55.8 °F 35.4 °F 29.8 in NO 1.9 mph 3 mph 46.2% 0 in
Murcia-Puente Tocinos, Espa?a
Compliments of Weather Underground - 3.25 mb

La estación de MeteoMurcia.com, publica sus datos en los siguientes proyectos:

Weather Underground PWS IMURCIAP2 Meteoclimatic www.awekas.at

W3Counter
Web Analytics